Time;durP1;ratioP1;P1;durP2;ratioP2;P2;SDS_P1;SDS_P2;PMS_P1;PMS_P2;Temp;Humidity;BMP_temperature;BMP_pressure;BME280_temperature;BME280_humidity;BME280_pressure;Samples;Min_cycle;Max_cycle;Signal;HPM_P1;HPM_P2
2024/04/07 19:44:47;;;;;;;6.63;1.77;;;16.10;60.50;;;;;;2218287;26;21176;-70
2024/04/07 19:45:50;;;;;;;7.03;1.60;;;15.70;63.20;;;;;;2219458;26;20675;-70
2024/04/07 19:46:51;;;;;;;3.40;1.60;;;15.80;59.40;;;;;;2196350;26;20686;-70
2024/04/07 19:47:52;;;;;;;6.77;2.17;;;15.90;59.00;;;;;;2223601;26;20492;-71
2024/04/07 19:48:52;;;;;;;8.03;2.13;;;16.00;59.50;;;;;;2228884;26;20298;-72
2024/04/07 19:49:53;;;;;;;6.40;2.03;;;16.20;56.90;;;;;;2211911;26;20305;-69
2024/04/07 19:50:58;;;;;;;8.10;1.73;;;16.40;57.60;;;;;;2216874;26;20850;-69
2024/04/07 19:52:00;;;;;;;7.40;2.03;;;16.40;56.80;;;;;;2220247;26;20266;-71
2024/04/07 19:53:02;;;;;;;5.53;2.27;;;16.50;54.80;;;;;;2219954;26;20467;-71
2024/04/07 19:54:03;;;;;;;5.67;1.53;;;16.60;57.20;;;;;;2212343;26;21190;-73
2024/04/07 19:55:04;;;;;;;9.40;1.60;;;16.60;55.80;;;;;;2230622;26;20463;-70
2024/04/07 19:56:05;;;;;;;7.10;2.00;;;16.60;56.10;;;;;;2223409;26;20233;-70
2024/04/07 19:57:05;;;;;;;7.70;2.03;;;16.70;55.90;;;;;;2215972;26;20252;-68
2024/04/07 19:58:06;;;;;;;9.57;1.80;;;16.70;53.60;;;;;;2218031;26;20235;-68
2024/04/07 19:59:07;;;;;;;6.80;1.80;;;16.70;53.10;;;;;;2242844;26;20229;-68
2024/04/07 20:00:10;;;;;;;5.07;1.60;;;16.60;52.90;;;;;;2226157;26;20244;-68
2024/04/07 20:01:11;;;;;;;4.33;1.53;;;16.60;53.60;;;;;;2227835;26;20325;-68
2024/04/07 20:02:12;;;;;;;3.70;1.50;;;16.60;54.90;;;;;;2226903;26;20606;-68
2024/04/07 20:03:15;;;;;;;6.00;1.90;;;16.60;53.70;;;;;;2212118;26;20462;-69
2024/04/07 20:04:15;;;;;;;7.07;2.00;;;16.60;52.00;;;;;;2217734;26;20833;-71
2024/04/07 20:05:16;;;;;;;7.83;1.43;;;16.70;50.80;;;;;;2216173;26;20453;-71
2024/04/07 20:06:20;;;;;;;7.43;1.60;;;16.80;47.30;;;;;;2212021;26;20416;-69
2024/04/07 20:07:21;;;;;;;4.60;1.87;;;16.80;47.70;;;;;;2245662;26;20373;-70
2024/04/07 20:08:23;;;;;;;7.80;1.90;;;16.90;47.70;;;;;;2226915;26;21007;-68
2024/04/07 20:09:24;;;;;;;4.83;1.83;;;16.90;48.70;;;;;;2201211;26;20728;-68
2024/04/07 20:10:24;;;;;;;5.80;1.93;;;16.90;48.00;;;;;;2198377;26;20630;-68
2024/04/07 20:11:25;;;;;;;4.27;1.77;;;17.00;50.70;;;;;;2211159;26;21118;-68
2024/04/07 20:12:27;;;;;;;6.90;2.43;;;17.00;50.00;;;;;;2211377;26;20270;-68
2024/04/07 20:13:28;;;;;;;5.23;1.77;;;17.00;46.30;;;;;;2214338;26;20308;-68
2024/04/07 20:14:28;;;;;;;4.77;1.70;;;17.00;47.90;;;;;;2241232;26;20501;-68
2024/04/07 20:15:29;;;;;;;7.10;1.83;;;17.00;47.50;;;;;;2239208;26;20307;-68
2024/04/07 20:16:30;;;;;;;4.67;1.50;;;17.10;50.10;;;;;;2241282;26;20771;-68
2024/04/07 20:17:31;;;;;;;6.30;2.03;;;17.10;46.60;;;;;;2214063;26;20266;-67
2024/04/07 20:18:31;;;;;;;5.33;1.73;;;17.10;47.70;;;;;;2218440;26;20270;-68
2024/04/07 20:19:32;;;;;;;10.37;1.80;;;17.10;47.00;;;;;;2222730;26;20282;-68
2024/04/07 20:20:33;;;;;;;8.73;2.10;;;17.10;46.70;;;;;;2221811;26;20316;-68
2024/04/07 20:21:34;;;;;;;8.20;1.97;;;17.10;47.40;;;;;;2239827;26;20732;-68
2024/04/07 20:22:36;;;;;;;6.87;1.70;;;17.10;48.70;;;;;;2213888;26;20572;-68
2024/04/07 20:23:36;;;;;;;7.30;1.87;;;17.10;48.70;;;;;;2209660;26;20267;-68
2024/04/07 20:24:37;;;;;;;8.67;1.93;;;17.10;45.90;;;;;;2210525;26;20550;-67
2024/04/07 20:25:38;;;;;;;7.50;2.53;;;17.10;48.10;;;;;;2213249;26;20266;-68
2024/04/07 20:26:39;;;;;;;4.07;1.47;;;17.10;47.70;;;;;;2215692;26;20308;-68
2024/04/07 20:27:40;;;;;;;14.23;1.97;;;17.10;46.90;;;;;;2199118;26;20279;-68
2024/04/07 20:28:40;;;;;;;6.97;1.50;;;17.10;49.00;;;;;;2200674;26;20298;-69
2024/04/07 20:29:41;;;;;;;8.40;1.50;;;17.00;47.10;;;;;;2221142;26;20960;-69
2024/04/07 20:30:42;;;;;;;5.43;1.57;;;17.00;46.10;;;;;;2235668;26;20303;-70
2024/04/07 20:31:43;;;;;;;7.97;1.70;;;17.00;48.20;;;;;;2214113;26;20266;-70
2024/04/07 20:32:44;;;;;;;5.57;1.60;;;17.00;47.10;;;;;;2215059;26;20846;-72
2024/04/07 20:33:45;;;;;;;2.93;1.50;;;17.00;46.80;;;;;;2213447;26;20308;-69
2024/04/07 20:34:45;;;;;;;5.97;1.63;;;17.00;45.50;;;;;;2199747;26;20914;-70
2024/04/07 20:35:46;;;;;;;5.03;1.50;;;17.00;45.10;;;;;;2198674;26;20502;-70
2024/04/07 20:36:47;;;;;;;6.40;1.70;;;17.00;45.70;;;;;;2215086;26;20986;-69
2024/04/07 20:37:48;;;;;;;5.40;1.83;;;17.10;45.30;;;;;;2213101;26;20262;-69
2024/04/07 20:38:48;;;;;;;8.33;1.47;;;17.10;44.60;;;;;;2239003;26;20290;-71
2024/04/07 20:39:49;;;;;;;7.13;1.60;;;17.10;44.60;;;;;;2226592;26;20278;-70
2024/04/07 20:40:50;;;;;;;8.73;1.67;;;17.10;44.40;;;;;;2200778;26;20632;-69
2024/04/07 20:41:51;;;;;;;5.00;1.60;;;17.10;45.10;;;;;;2207535;26;20271;-71
2024/04/07 20:42:52;;;;;;;5.97;1.30;;;17.10;44.80;;;;;;2241023;26;20306;-69
2024/04/07 20:43:52;;;;;;;7.30;2.00;;;17.10;45.00;;;;;;2211745;26;20504;-68
2024/04/07 20:44:53;;;;;;;5.53;1.93;;;17.10;45.50;;;;;;2185533;26;20279;-70
2024/04/07 20:45:54;;;;;;;8.43;1.90;;;17.20;45.70;;;;;;2200992;26;21313;-69
2024/04/07 20:46:54;;;;;;;8.37;2.07;;;17.20;45.90;;;;;;2207740;26;20266;-69
2024/04/07 20:47:55;;;;;;;3.47;1.40;;;17.30;47.80;;;;;;2206893;26;20267;-69
2024/04/07 20:48:56;;;;;;;7.53;2.00;;;17.30;46.10;;;;;;2212677;26;20736;-69
2024/04/07 20:49:59;;;;;;;6.90;1.60;;;17.20;44.50;;;;;;2212804;26;20262;-68
2024/04/07 20:50:59;;;;;;;9.03;2.10;;;17.30;43.90;;;;;;2187764;26;20268;-68
2024/04/07 20:52:00;;;;;;;7.87;1.83;;;17.20;44.10;;;;;;2196786;26;20494;-69
2024/04/07 20:53:01;;;;;;;10.37;1.97;;;17.20;45.80;;;;;;2198247;26;20265;-67
2024/04/07 20:54:02;;;;;;;5.43;1.87;;;17.20;46.00;;;;;;2197379;26;20345;-68
2024/04/07 20:55:03;;;;;;;11.47;2.03;;;17.20;45.60;;;;;;2184019;26;20721;-67
2024/04/07 20:56:04;;;;;;;7.27;1.57;;;17.30;45.40;;;;;;2177485;26;20461;-69
2024/04/07 20:57:05;;;;;;;6.00;1.83;;;17.30;45.10;;;;;;2189077;26;20547;-69
2024/04/07 20:58:05;;;;;;;4.43;1.63;;;17.30;44.60;;;;;;2192381;26;20280;-69
2024/04/07 20:59:06;;;;;;;9.57;2.03;;;17.20;45.00;;;;;;2177605;26;20230;-69
2024/04/07 21:00:08;;;;;;;7.00;1.50;;;17.20;43.40;;;;;;2190070;26;20232;-68
2024/04/07 21:01:09;;;;;;;5.67;1.60;;;17.30;45.10;;;;;;2206198;26;20341;-69
2024/04/07 21:02:10;;;;;;;6.37;1.70;;;17.20;46.30;;;;;;2206088;26;21081;-68
2024/04/07 21:03:10;;;;;;;6.87;1.60;;;17.20;44.40;;;;;;2191639;26;20232;-68
2024/04/07 21:04:11;;;;;;;6.30;1.80;;;17.20;44.60;;;;;;2190705;26;20444;-68
2024/04/07 21:05:12;;;;;;;4.63;1.77;;;17.30;45.10;;;;;;2188284;26;20287;-68
2024/04/07 21:06:12;;;;;;;11.30;1.60;;;17.20;46.10;;;;;;2189126;26;20279;-68
2024/04/07 21:07:13;;;;;;;9.37;1.63;;;17.10;46.10;;;;;;2193647;26;20271;-68
2024/04/07 21:08:14;;;;;;;7.13;1.50;;;17.20;45.80;;;;;;2193273;26;20240;-68
2024/04/07 21:09:15;;;;;;;5.53;1.63;;;17.20;47.60;;;;;;2177476;26;20460;-68
2024/04/07 21:10:15;;;;;;;6.80;1.77;;;17.10;45.30;;;;;;2181497;26;20237;-69
2024/04/07 21:11:16;;;;;;;4.90;1.80;;;17.10;44.90;;;;;;2178877;27;20793;-68
2024/04/07 21:12:17;;;;;;;4.33;1.80;;;17.10;44.40;;;;;;2206610;26;20231;-68
2024/04/07 21:13:17;;;;;;;8.33;1.63;;;17.10;44.70;;;;;;2213171;26;20513;-68
2024/04/07 21:14:18;;;;;;;7.00;2.13;;;17.10;45.50;;;;;;2188277;26;20756;-67
2024/04/07 21:15:19;;;;;;;4.63;1.63;;;17.10;45.70;;;;;;2206836;26;20239;-67
2024/04/07 21:16:20;;;;;;;4.93;1.50;;;17.10;45.70;;;;;;2206212;26;20232;-68
2024/04/07 21:17:21;;;;;;;9.47;2.23;;;17.10;45.60;;;;;;2219023;26;20511;-69
2024/04/07 21:18:22;;;;;;;4.57;1.97;;;17.10;45.30;;;;;;2204546;26;20263;-68
2024/04/07 21:19:22;;;;;;;3.67;1.90;;;17.10;44.80;;;;;;2212081;26;20279;-66
2024/04/07 21:20:23;;;;;;;6.93;1.77;;;17.20;46.70;;;;;;2208179;26;20275;-66
2024/04/07 21:21:24;;;;;;;4.07;1.40;;;17.20;44.60;;;;;;2232693;26;20762;-66
2024/04/07 21:22:24;;;;;;;5.20;1.60;;;17.20;45.00;;;;;;2214688;26;20269;-66
2024/04/07 21:23:26;;;;;;;7.37;1.67;;;17.20;44.90;;;;;;2204925;26;20259;-66
2024/04/07 21:24:26;;;;;;;8.47;1.60;;;17.20;44.70;;;;;;2233416;26;20309;-66
2024/04/07 21:25:28;;;;;;;5.70;1.50;;;17.20;45.10;;;;;;2225185;26;20514;-67
2024/04/07 21:26:29;;;;;;;12.93;2.07;;;17.20;45.70;;;;;;2221441;26;20361;-66
2024/04/07 21:27:29;;;;;;;5.40;1.50;;;17.20;46.30;;;;;;2208965;26;20502;-66
2024/04/07 21:28:36;;;;;;;6.17;1.77;;;17.30;45.60;;;;;;2207369;26;20371;-67
2024/04/07 21:29:37;;;;;;;8.60;1.50;;;17.30;45.20;;;;;;2203918;26;20263;-68
2024/04/07 21:30:38;;;;;;;6.27;1.53;;;17.30;44.00;;;;;;2208549;26;20502;-68
2024/04/07 21:31:39;;;;;;;4.67;1.73;;;17.40;44.40;;;;;;2183810;27;20302;-69
2024/04/07 21:32:40;;;;;;;6.63;1.97;;;17.40;43.80;;;;;;2207858;26;20283;-68
2024/04/07 21:33:42;;;;;;;6.00;1.90;;;17.40;44.60;;;;;;2220413;26;20552;-68
2024/04/07 21:34:43;;;;;;;7.13;1.67;;;17.40;44.50;;;;;;2193922;26;20511;-68
2024/04/07 21:35:43;;;;;;;5.83;1.70;;;17.40;44.30;;;;;;2201715;26;20503;-68
2024/04/07 21:36:44;;;;;;;9.63;1.80;;;17.50;45.60;;;;;;2213972;26;20263;-70
2024/04/07 21:37:45;;;;;;;6.43;1.70;;;17.50;43.60;;;;;;2225000;26;20266;-69
2024/04/07 21:38:45;;;;;;;5.63;2.43;;;17.50;44.20;;;;;;2209075;26;20635;-69
2024/04/07 21:39:46;;;;;;;11.07;1.83;;;17.40;44.70;;;;;;2208347;26;20372;-70
2024/04/07 21:40:47;;;;;;;7.53;1.97;;;17.50;46.20;;;;;;2202122;26;20349;-68
2024/04/07 21:41:47;;;;;;;4.67;1.70;;;17.50;44.90;;;;;;2205327;26;20831;-68
2024/04/07 21:42:50;;;;;;;4.60;1.83;;;17.50;44.20;;;;;;2207564;26;20318;-69
2024/04/07 21:43:50;;;;;;;7.07;1.60;;;17.60;43.40;;;;;;2203746;26;20279;-69
2024/04/07 21:44:51;;;;;;;7.70;2.17;;;17.60;44.20;;;;;;2205987;26;20833;-69
2024/04/07 21:45:52;;;;;;;7.07;1.77;;;17.50;43.90;;;;;;2228727;26;20269;-69
2024/04/07 21:46:52;;;;;;;10.07;2.40;;;17.50;43.60;;;;;;2221607;26;20281;-69
2024/04/07 21:47:54;;;;;;;5.93;1.77;;;17.60;44.70;;;;;;2220675;26;20265;-69
2024/04/07 21:48:55;;;;;;;5.23;2.27;;;17.50;43.80;;;;;;2218706;26;20314;-69
2024/04/07 21:49:56;;;;;;;6.07;1.90;;;17.50;44.00;;;;;;2192272;26;20487;-69
2024/04/07 21:50:56;;;;;;;7.37;1.93;;;17.50;43.80;;;;;;2191444;26;20310;-69
2024/04/07 21:51:57;;;;;;;6.60;1.57;;;17.60;43.90;;;;;;2188772;26;21065;-68
2024/04/07 21:52:58;;;;;;;6.73;1.70;;;17.60;43.90;;;;;;2188409;26;20407;-69
2024/04/07 21:53:58;;;;;;;5.80;1.60;;;17.50;44.20;;;;;;2202506;26;20322;-69
2024/04/07 21:54:59;;;;;;;5.27;1.80;;;17.50;44.10;;;;;;2200819;26;20849;-69
2024/04/07 21:56:01;;;;;;;9.17;2.57;;;17.50;44.00;;;;;;2205939;26;20330;-69
2024/04/07 21:57:02;;;;;;;4.47;1.53;;;17.60;43.90;;;;;;2231258;26;20787;-68
2024/04/07 21:58:03;;;;;;;5.73;2.13;;;17.60;44.30;;;;;;2229657;26;20538;-68
2024/04/07 21:59:04;;;;;;;6.60;1.67;;;17.60;44.00;;;;;;2228778;26;20471;-67
2024/04/07 22:00:08;;;;;;;6.93;1.83;;;17.60;44.10;;;;;;2226391;26;20234;-69
2024/04/07 22:01:12;;;;;;;7.00;1.73;;;17.60;44.10;;;;;;2200642;26;20244;-68
2024/04/07 22:02:13;;;;;;;10.73;1.60;;;17.70;44.50;;;;;;2221867;26;20477;-68
2024/04/07 22:03:14;;;;;;;5.47;1.73;;;17.60;44.70;;;;;;2231532;26;20493;-68
2024/04/07 22:04:15;;;;;;;8.27;2.23;;;17.60;44.50;;;;;;2223900;26;20238;-68
2024/04/07 22:05:16;;;;;;;5.40;1.90;;;17.60;45.10;;;;;;2235715;26;20511;-69
2024/04/07 22:06:16;;;;;;;6.50;1.73;;;17.50;44.20;;;;;;2204476;26;20275;-68
2024/04/07 22:07:17;;;;;;;9.17;1.80;;;17.60;44.50;;;;;;2202877;26;20294;-68
2024/04/07 22:08:18;;;;;;;5.00;1.67;;;17.60;44.00;;;;;;2206825;26;20231;-68
2024/04/07 22:09:18;;;;;;;4.63;1.70;;;17.60;44.30;;;;;;2204906;26;20314;-68
2024/04/07 22:10:19;;;;;;;9.53;2.00;;;17.60;44.50;;;;;;2204101;26;20345;-69
2024/04/07 22:11:20;;;;;;;5.67;1.73;;;17.50;44.90;;;;;;2202926;26;20683;-68
2024/04/07 22:12:20;;;;;;;9.97;1.80;;;17.50;45.30;;;;;;2201093;26;20266;-68
2024/04/07 22:13:21;;;;;;;8.23;1.97;;;17.50;44.30;;;;;;2204158;26;20381;-68
2024/04/07 22:14:22;;;;;;;6.50;1.60;;;17.50;44.20;;;;;;2206514;26;20267;-68
2024/04/07 22:15:23;;;;;;;7.00;1.93;;;17.60;44.10;;;;;;2231600;26;20265;-67
2024/04/07 22:16:23;;;;;;;5.50;1.77;;;17.50;44.20;;;;;;2229659;26;20265;-68
2024/04/07 22:17:24;;;;;;;5.37;1.80;;;17.60;45.10;;;;;;2228701;26;20265;-68
2024/04/07 22:18:30;;;;;;;7.43;1.77;;;17.60;44.30;;;;;;2219086;26;20858;-68
2024/04/07 22:19:31;;;;;;;5.20;1.57;;;17.60;44.10;;;;;;2221078;26;20309;-68
2024/04/07 22:20:32;;;;;;;5.90;2.03;;;17.60;44.00;;;;;;2214588;26;21024;-70
2024/04/07 22:21:32;;;;;;;6.23;1.80;;;17.60;44.10;;;;;;2218415;26;20277;-70
2024/04/07 22:22:33;;;;;;;7.73;1.80;;;17.60;43.90;;;;;;2221012;26;20265;-70
2024/04/07 22:23:34;;;;;;;5.23;1.60;;;17.60;44.30;;;;;;2191605;26;20272;-68
2024/04/07 22:24:34;;;;;;;10.07;2.27;;;17.60;44.20;;;;;;2201757;26;20279;-68
2024/04/07 22:25:35;;;;;;;5.93;2.03;;;17.60;43.90;;;;;;2229663;26;20310;-68
2024/04/07 22:26:37;;;;;;;9.30;2.20;;;17.60;44.20;;;;;;2228504;26;20266;-67
2024/04/07 22:27:37;;;;;;;11.03;2.10;;;17.60;44.30;;;;;;2213262;26;20367;-68
2024/04/07 22:28:39;;;;;;;8.00;2.10;;;17.60;44.10;;;;;;2228867;26;21066;-67
2024/04/07 22:29:40;;;;;;;7.90;2.40;;;17.60;44.70;;;;;;2223378;26;20308;-67
2024/04/07 22:30:41;;;;;;;5.33;1.50;;;17.60;44.70;;;;;;2201088;26;20559;-68
2024/04/07 22:31:41;;;;;;;8.60;2.57;;;17.50;44.50;;;;;;2205938;26;20550;-68
2024/04/07 22:32:42;;;;;;;5.80;1.60;;;17.60;44.20;;;;;;2204804;26;20705;-67
2024/04/07 22:33:45;;;;;;;7.10;1.80;;;17.50;44.80;;;;;;2207220;26;20267;-68
2024/04/07 22:34:45;;;;;;;4.30;2.13;;;17.50;45.10;;;;;;2193012;26;20601;-68
2024/04/07 22:35:46;;;;;;;8.37;2.43;;;17.50;45.60;;;;;;2221808;26;20972;-68
2024/04/07 22:36:48;;;;;;;6.40;1.67;;;17.50;45.80;;;;;;2222202;26;20364;-68
2024/04/07 22:37:48;;;;;;;4.77;1.63;;;17.50;45.70;;;;;;2211060;26;20743;-67
2024/04/07 22:38:49;;;;;;;6.77;1.67;;;17.40;45.70;;;;;;2216680;26;20501;-68
2024/04/07 22:39:51;;;;;;;6.97;1.97;;;17.40;45.60;;;;;;2228942;26;20269;-68
2024/04/07 22:40:52;;;;;;;14.70;2.47;;;17.40;45.40;;;;;;2220950;26;20269;-68
2024/04/07 22:41:53;;;;;;;8.53;1.70;;;17.40;46.10;;;;;;2211590;26;20565;-67
2024/04/07 22:42:53;;;;;;;6.10;1.73;;;17.40;45.90;;;;;;2204061;26;20424;-68
2024/04/07 22:43:54;;;;;;;6.33;1.70;;;17.30;46.50;;;;;;2186591;26;20273;-67
2024/04/07 22:44:55;;;;;;;7.03;1.77;;;17.30;46.70;;;;;;2221098;26;20371;-67
2024/04/07 22:46:03;;;;;;;5.33;1.70;;;17.40;46.80;;;;;;2233214;26;20312;-67
2024/04/07 22:47:04;;;;;;;7.33;1.83;;;17.30;47.90;;;;;;2187157;26;20256;-67
2024/04/07 22:48:05;;;;;;;9.90;2.30;;;17.10;49.00;;;;;;2207247;26;20595;-67
2024/04/07 22:49:08;;;;;;;6.87;1.57;;;17.10;49.30;;;;;;2219796;26;20226;-67
2024/04/07 22:50:08;;;;;;;9.63;2.20;;;17.00;49.20;;;;;;2221584;26;20449;-67
2024/04/07 22:51:09;;;;;;;8.63;1.73;;;17.00;49.10;;;;;;2228920;26;20444;-67
2024/04/07 22:52:10;;;;;;;8.73;1.57;;;17.00;50.00;;;;;;2215458;26;20289;-68
2024/04/07 22:53:10;;;;;;;6.30;1.83;;;16.90;48.60;;;;;;2206950;26;20648;-68
2024/04/07 22:54:11;;;;;;;6.70;1.80;;;16.80;50.10;;;;;;2206549;26;20349;-68
2024/04/07 22:55:12;;;;;;;5.70;2.07;;;16.80;49.70;;;;;;2233552;26;20293;-68
2024/04/07 22:56:12;;;;;;;6.33;1.83;;;16.70;49.00;;;;;;2231786;26;20735;-67
2024/04/07 22:57:13;;;;;;;9.10;1.90;;;16.70;48.60;;;;;;2229404;26;20284;-68
2024/04/07 22:58:15;;;;;;;2.60;1.43;;;16.70;48.90;;;;;;2230873;26;20337;-67
2024/04/07 22:59:16;;;;;;;6.73;1.90;;;16.70;50.30;;;;;;2233618;26;20237;-67
2024/04/07 23:00:16;;;;;;;7.73;2.00;;;16.70;49.20;;;;;;2232285;26;21002;-67
2024/04/07 23:01:17;;;;;;;7.20;1.67;;;16.60;49.30;;;;;;2202082;26;20348;-68
2024/04/07 23:02:18;;;;;;;7.17;1.87;;;16.60;49.50;;;;;;2228940;26;20233;-67
2024/04/07 23:03:21;;;;;;;4.93;1.60;;;16.50;50.00;;;;;;2217535;26;20663;-68
2024/04/07 23:04:21;;;;;;;7.37;1.70;;;16.50;49.80;;;;;;2219591;26;20643;-68
2024/04/07 23:05:22;;;;;;;5.77;1.97;;;16.40;50.10;;;;;;2229444;26;20724;-67
2024/04/07 23:06:23;;;;;;;14.13;2.03;;;16.40;50.40;;;;;;2200879;26;20313;-67
2024/04/07 23:07:23;;;;;;;7.07;1.80;;;16.40;50.90;;;;;;2204458;26;20259;-68
2024/04/07 23:08:25;;;;;;;7.60;1.97;;;16.20;51.30;;;;;;2233944;26;20273;-68
2024/04/07 23:09:26;;;;;;;5.23;2.07;;;16.20;51.60;;;;;;2226845;26;20269;-67
2024/04/07 23:10:27;;;;;;;8.27;1.77;;;16.20;51.40;;;;;;2200022;26;20497;-68
2024/04/07 23:11:27;;;;;;;8.53;2.07;;;16.20;51.50;;;;;;2222265;26;20278;-68
2024/04/07 23:12:30;;;;;;;7.83;2.10;;;16.20;50.90;;;;;;2234905;26;20303;-67
2024/04/07 23:13:31;;;;;;;6.57;2.30;;;16.30;51.20;;;;;;2234093;26;20381;-68
2024/04/07 23:14:31;;;;;;;7.63;1.63;;;16.30;51.60;;;;;;2200512;26;21077;-67
2024/04/07 23:15:32;;;;;;;9.97;2.27;;;16.20;51.40;;;;;;2185439;26;20375;-67
2024/04/07 23:16:32;;;;;;;8.83;2.00;;;16.30;50.40;;;;;;2207159;26;20266;-67
2024/04/07 23:17:33;;;;;;;12.80;2.00;;;16.40;49.80;;;;;;2203801;26;20284;-67
2024/04/07 23:18:35;;;;;;;5.80;1.90;;;16.40;50.30;;;;;;2191136;26;20271;-67
2024/04/07 23:19:35;;;;;;;10.13;1.90;;;16.30;49.70;;;;;;2220779;26;20352;-67
2024/04/07 23:20:36;;;;;;;10.47;1.70;;;16.30;50.00;;;;;;2199802;26;20587;-67
2024/04/07 23:21:38;;;;;;;5.33;1.70;;;16.30;50.30;;;;;;2177625;27;20268;-67
2024/04/07 23:22:39;;;;;;;6.17;2.20;;;16.30;50.40;;;;;;2221020;26;20348;-67
2024/04/07 23:23:41;;;;;;;5.27;1.70;;;16.30;50.50;;;;;;2228675;26;20484;-67
2024/04/07 23:24:42;;;;;;;7.60;1.57;;;16.40;50.80;;;;;;2200178;26;20290;-67
2024/04/07 23:25:42;;;;;;;5.73;1.70;;;16.30;51.10;;;;;;2206942;26;20549;-67
2024/04/07 23:26:43;;;;;;;5.20;1.97;;;16.20;52.20;;;;;;2205019;26;20338;-67
2024/04/07 23:27:44;;;;;;;4.20;1.57;;;16.20;53.20;;;;;;2207480;26;20297;-67
2024/04/07 23:28:45;;;;;;;8.97;1.83;;;16.10;53.00;;;;;;2207659;26;20263;-67
2024/04/07 23:29:47;;;;;;;7.23;1.70;;;16.00;52.70;;;;;;2201139;26;20503;-67
2024/04/07 23:30:55;;;;;;;8.13;1.77;;;16.00;52.80;;;;;;2204669;26;20279;-67
2024/04/07 23:31:56;;;;;;;9.83;2.10;;;16.10;54.10;;;;;;2201426;26;20497;-67
2024/04/07 23:32:57;;;;;;;7.80;2.20;;;16.00;54.70;;;;;;2202665;26;20499;-67
2024/04/07 23:33:57;;;;;;;8.67;2.13;;;16.00;54.60;;;;;;2230197;26;20261;-67
2024/04/07 23:34:58;;;;;;;7.47;1.87;;;15.90;54.50;;;;;;2220859;26;20297;-67
2024/04/07 23:36:05;;;;;;;4.70;2.00;;;15.90;54.40;;;;;;2214628;26;20363;-67
2024/04/07 23:37:06;;;;;;;6.83;2.03;;;15.80;54.90;;;;;;2190823;26;20479;-68
2024/04/07 23:38:07;;;;;;;9.13;2.07;;;15.80;55.50;;;;;;2191012;26;20995;-67
2024/04/07 23:39:08;;;;;;;7.67;2.17;;;15.80;56.60;;;;;;2200417;26;20454;-67
2024/04/07 23:40:09;;;;;;;10.40;1.50;;;15.80;54.80;;;;;;2205550;26;20674;-67
2024/04/07 23:41:10;;;;;;;6.40;2.20;;;15.70;55.60;;;;;;2232153;26;20450;-67
2024/04/07 23:42:10;;;;;;;7.27;1.70;;;15.70;56.10;;;;;;2229995;26;20268;-67
2024/04/07 23:43:11;;;;;;;10.07;2.23;;;15.70;57.20;;;;;;2220656;26;20238;-67
2024/04/07 23:44:12;;;;;;;10.33;2.30;;;15.70;57.30;;;;;;2214293;26;20246;-67
2024/04/07 23:45:13;;;;;;;7.43;1.73;;;15.70;56.60;;;;;;2206687;26;20235;-67
2024/04/07 23:46:14;;;;;;;6.67;2.00;;;15.70;55.80;;;;;;2231601;26;21103;-67
2024/04/07 23:47:14;;;;;;;6.13;1.70;;;15.70;54.70;;;;;;2213137;26;20234;-67
2024/04/07 23:48:15;;;;;;;5.00;1.50;;;15.70;56.50;;;;;;2201786;26;20271;-67
2024/04/07 23:49:16;;;;;;;11.33;2.47;;;15.70;56.10;;;;;;2232253;26;20342;-67
2024/04/07 23:50:17;;;;;;;10.60;2.53;;;15.70;55.90;;;;;;2202101;26;20462;-67
2024/04/07 23:51:18;;;;;;;13.00;2.40;;;15.70;55.70;;;;;;2171280;26;20245;-67
2024/04/07 23:52:18;;;;;;;9.63;1.80;;;15.70;56.30;;;;;;2216905;26;20339;-67
2024/04/07 23:53:21;;;;;;;6.97;1.70;;;15.70;56.20;;;;;;2227910;26;20236;-67
2024/04/07 23:54:21;;;;;;;6.57;1.67;;;15.70;55.20;;;;;;2199025;26;20364;-67
2024/04/07 23:55:22;;;;;;;6.40;1.77;;;15.60;55.50;;;;;;2213941;26;20948;-67
2024/04/07 23:56:23;;;;;;;7.27;2.33;;;15.60;56.50;;;;;;2203384;26;20317;-67
2024/04/07 23:57:23;;;;;;;8.70;1.90;;;15.60;57.00;;;;;;2205991;26;20297;-67
2024/04/07 23:58:24;;;;;;;4.90;1.87;;;15.60;59.00;;;;;;2233855;26;20276;-67
2024/04/07 23:59:25;;;;;;;7.80;1.57;;;15.60;59.50;;;;;;2200634;26;20270;-67
